Terminal Aerodrome Forecast
Issued by NWS Northern Indiana

Home | Current Version | Previous Version | Graphics & Text | Print | Product List | Glossary On
Versions: 1 2 3 4 5 6 7 8 9 10 11 12 13 14 15
000
FTUS43 KIWX 251121
TAFFWA
TAF
KFWA 251121Z 2512/2612 17004KT P6SM BKN200
     FM251600 20008KT P6SM SCT080
     FM260000 19006KT P6SM VCSH SCT250
     FM260800 20004KT P6SM VCTS BKN090CB=

USA.gov is the U.S. government's official web portal to all federal, state and local government web resources and services.